KBHM

Birmingham-Shuttlesworth International Airport

Airport
ICAO code
KBHM
IATA Code
BHM
Summary
ICAO Region
NAM
ICAO Territory
Location

Jefferson County , Alabama

Serving
Birmingham
Elevation
644 ft
Coordinates
33° 33' 44" N , 86° 45' 4" W
KCC
Metar
KBHM 202153Z 31003KT 10SM CLR 18/M04 A3023 RMK AO2 SLP237 T01831039

Description

Civil/Military (USAF) international airport serving the city of Birmingham and central Alabama, USA.

Airport map

Aerial View

SKYbrary Partners:

Safety knowledge contributed by: